createdAt,value
2023-01-20T00:01:52.839Z,-1.96
2023-01-20T00:04:20.406Z,-1.95
2023-01-20T00:06:48.124Z,-1.94
2023-01-20T00:09:17.859Z,-1.96
2023-01-20T00:11:45.817Z,-2.04
2023-01-20T00:14:13.585Z,-2.10
2023-01-20T00:16:41.161Z,-2.12
2023-01-20T00:19:12.499Z,-2.11
2023-01-20T00:21:40.010Z,-2.10
2023-01-20T00:24:07.838Z,-2.06
2023-01-20T00:26:35.339Z,-2.05
2023-01-20T00:29:02.866Z,-2.07
2023-01-20T00:31:32.149Z,-1.99
2023-01-20T00:34:01.647Z,-1.95
2023-01-20T00:36:34.496Z,-1.96
2023-01-20T00:39:05.647Z,-1.98
2023-01-20T00:41:33.813Z,-2.04
2023-01-20T00:44:01.354Z,-1.96
2023-01-20T00:46:29.070Z,-2.00
2023-01-20T00:48:56.571Z,-2.00
2023-01-20T00:51:24.243Z,-2.01
2023-01-20T00:53:51.839Z,-2.09
2023-01-20T00:56:19.301Z,-2.05
2023-01-20T00:58:46.873Z,-2.07
2023-01-20T01:01:14.661Z,-2.09
2023-01-20T01:03:42.473Z,-2.03
2023-01-20T01:06:18.082Z,-1.93
2023-01-20T01:08:46.156Z,-2.10
2023-01-20T01:11:14.448Z,-1.93
2023-01-20T01:13:42.969Z,-1.85
2023-01-20T01:16:15.782Z,-2.10
2023-01-20T01:18:43.938Z,-1.86
2023-01-20T01:21:14.404Z,-1.90
2023-01-20T01:23:42.191Z,-1.88
2023-01-20T01:26:10.716Z,-1.86
2023-01-20T01:28:38.624Z,-1.96
2023-01-20T01:31:08.007Z,-2.03
2023-01-20T01:33:35.901Z,-2.00
2023-01-20T01:36:05.292Z,-1.99
2023-01-20T01:38:32.870Z,-2.03
2023-01-20T01:41:00.794Z,-2.04
2023-01-20T01:43:34.357Z,-1.97
2023-01-20T01:46:02.371Z,-2.01
2023-01-20T01:48:39.520Z,-1.87
2023-01-20T01:51:11.730Z,-1.95
2023-01-20T01:53:54.432Z,-1.88
2023-01-20T01:56:24.350Z,-1.94
2023-01-20T01:58:57.219Z,-1.95
2023-01-20T02:01:26.269Z,-1.99
2023-01-20T02:04:06.088Z,-1.96
2023-01-20T02:06:36.257Z,-2.03
2023-01-20T02:09:05.145Z,-1.98
2023-01-20T02:11:39.218Z,-1.97
2023-01-20T02:14:08.132Z,-2.06
2023-01-20T02:16:57.896Z,-1.93
2023-01-20T02:19:39.773Z,-1.97
2023-01-20T02:22:25.701Z,-2.05
2023-01-20T02:25:15.374Z,-2.01
2023-01-20T02:27:51.407Z,-2.29
2023-01-20T02:30:54.152Z,-2.10
2023-01-20T02:34:00.042Z,-2.07
2023-01-20T02:36:36.541Z,-2.12
2023-01-20T02:39:30.568Z,-2.22
2023-01-20T02:42:30.794Z,-2.12
2023-01-20T02:45:03.635Z,-2.34
2023-01-20T02:47:34.152Z,-2.26
2023-01-20T02:50:51.710Z,-2.26
2023-01-20T02:53:22.815Z,-2.26
2023-01-20T02:55:53.760Z,-2.28
2023-01-20T02:58:44.978Z,-2.27
2023-01-20T03:01:20.959Z,-2.23
2023-01-20T03:03:52.411Z,-2.28
2023-01-20T03:06:24.652Z,-2.35
2023-01-20T03:08:56.389Z,-2.34
2023-01-20T03:11:24.055Z,-2.43
2023-01-20T03:14:05.356Z,-2.29
2023-01-20T03:16:33.485Z,-2.37
2023-01-20T03:19:01.195Z,-2.36
2023-01-20T03:21:29.150Z,-2.36
2023-01-20T03:24:01.573Z,-2.34
2023-01-20T03:26:31.109Z,-2.38
2023-01-20T03:28:59.334Z,-2.40
2023-01-20T03:32:07.744Z,-2.18
2023-01-20T03:34:38.308Z,-2.30
2023-01-20T03:37:07.033Z,-2.31
2023-01-20T03:39:40.040Z,-2.28
2023-01-20T03:42:25.254Z,-2.21
2023-01-20T03:45:07.817Z,-2.22
2023-01-20T03:47:59.672Z,-2.21
2023-01-20T03:50:42.962Z,-2.20
2023-01-20T03:53:35.184Z,-2.22
2023-01-20T03:56:17.571Z,-2.25
2023-01-20T03:58:49.265Z,-2.39
2023-01-20T04:01:19.818Z,-2.33
2023-01-20T04:03:51.000Z,-2.29
2023-01-20T04:06:21.983Z,-2.34
2023-01-20T04:08:57.039Z,-2.27
2023-01-20T04:11:26.385Z,-2.31
2023-01-20T04:13:54.189Z,-2.35
2023-01-20T04:16:23.252Z,-2.28
2023-01-20T04:18:52.032Z,-2.22
2023-01-20T04:21:40.571Z,-2.09
2023-01-20T04:24:22.382Z,-2.13
2023-01-20T04:26:49.902Z,-1.87
2023-01-20T04:29:17.395Z,-1.59
2023-01-20T04:31:44.883Z,-1.20
2023-01-20T04:34:18.540Z,-0.80
2023-01-20T04:36:45.990Z,-0.45
2023-01-20T04:39:13.499Z,0.06
2023-01-20T04:41:41.052Z,0.48
2023-01-20T04:44:08.555Z,0.99
2023-01-20T04:46:37.025Z,1.51
2023-01-20T04:49:04.732Z,2.04
2023-01-20T04:51:35.374Z,2.44
2023-01-20T04:54:02.907Z,3.03
2023-01-20T04:56:30.401Z,3.54
2023-01-20T04:58:58.109Z,3.98
2023-01-20T05:01:25.844Z,4.52
2023-01-20T05:03:53.427Z,5.02
2023-01-20T05:06:20.938Z,5.46
2023-01-20T05:08:48.543Z,5.88
2023-01-20T05:11:16.071Z,6.29
2023-01-20T05:13:43.635Z,6.75
2023-01-20T05:16:11.634Z,7.17
2023-01-20T05:18:39.380Z,7.65
2023-01-20T05:21:09.009Z,8.11
2023-01-20T05:23:36.600Z,8.59
2023-01-20T05:26:04.076Z,9.01
2023-01-20T05:28:31.665Z,9.40
2023-01-20T05:30:59.349Z,9.78
2023-01-20T05:33:26.840Z,10.17
2023-01-20T05:35:56.014Z,10.59
2023-01-20T05:38:23.740Z,10.92
2023-01-20T05:40:51.195Z,11.30
2023-01-20T05:43:18.740Z,11.73
2023-01-20T05:45:47.035Z,12.08
2023-01-20T05:48:14.484Z,12.33
2023-01-20T05:51:03.837Z,12.42
2023-01-20T05:53:43.330Z,12.94
2023-01-20T05:56:16.260Z,13.29
2023-01-20T05:58:48.074Z,13.38
2023-01-20T06:01:27.393Z,13.68
2023-01-20T06:03:55.368Z,14.07
2023-01-20T06:06:26.080Z,14.19
2023-01-20T06:08:54.408Z,14.58
2023-01-20T06:11:22.327Z,14.80
2023-01-20T06:13:52.356Z,14.99
2023-01-20T06:16:30.198Z,15.12
2023-01-20T06:19:07.595Z,15.37
2023-01-20T06:21:35.547Z,15.75
2023-01-20T06:24:07.578Z,16.05
2023-01-20T06:26:42.951Z,16.15
2023-01-20T06:29:18.134Z,16.54
2023-01-20T06:31:46.023Z,16.78
2023-01-20T06:34:13.923Z,17.04
2023-01-20T06:36:41.444Z,17.21
2023-01-20T06:39:16.360Z,17.48
2023-01-20T06:41:46.841Z,17.63
2023-01-20T06:44:15.813Z,17.87
2023-01-20T06:46:49.200Z,18.18
2023-01-20T06:49:21.931Z,18.25
2023-01-20T06:51:55.274Z,18.54
2023-01-20T06:54:25.324Z,18.63
2023-01-20T06:56:55.419Z,18.98
2023-01-20T06:59:29.028Z,18.95
2023-01-20T07:02:06.924Z,19.27
2023-01-20T07:04:52.058Z,19.30
2023-01-20T07:07:23.558Z,19.48
2023-01-20T07:09:57.031Z,19.50
2023-01-20T07:12:27.459Z,19.67
2023-01-20T07:15:04.658Z,19.49
2023-01-20T07:17:40.178Z,19.51
2023-01-20T07:20:24.730Z,19.31
2023-01-20T07:22:57.420Z,19.31
2023-01-20T07:25:32.777Z,19.11
2023-01-20T07:28:02.611Z,18.77
2023-01-20T07:30:37.878Z,18.52
2023-01-20T07:33:10.382Z,18.05
2023-01-20T07:35:43.305Z,17.59
2023-01-20T07:38:25.614Z,17.20
2023-01-20T07:41:22.336Z,16.88
2023-01-20T07:43:53.620Z,16.53
2023-01-20T07:46:22.324Z,16.19
2023-01-20T07:48:50.607Z,15.87
2023-01-20T07:51:26.017Z,15.28
2023-01-20T07:53:59.768Z,14.66
2023-01-20T07:56:37.854Z,14.20
2023-01-20T07:59:07.908Z,13.52
2023-01-20T08:01:40.635Z,12.85
2023-01-20T08:04:08.763Z,12.60
2023-01-20T08:06:45.687Z,12.14
2023-01-20T08:09:26.891Z,11.57
2023-01-20T08:12:05.913Z,11.33
2023-01-20T08:14:34.225Z,10.96
2023-01-20T08:17:03.031Z,10.65
2023-01-20T08:19:30.738Z,10.27
2023-01-20T08:22:00.933Z,9.86
2023-01-20T08:24:31.251Z,9.53
2023-01-20T08:27:01.300Z,9.28
2023-01-20T08:29:31.575Z,9.29
2023-01-20T08:32:03.866Z,8.78
2023-01-20T08:34:32.934Z,8.51
2023-01-20T08:37:06.101Z,8.23
2023-01-20T08:39:38.966Z,8.10
2023-01-20T08:42:11.172Z,7.95
2023-01-20T08:44:38.872Z,7.85
2023-01-20T08:47:06.335Z,7.60
2023-01-20T08:49:34.216Z,7.49
2023-01-20T08:52:02.305Z,7.35
2023-01-20T08:54:34.679Z,7.28
2023-01-20T08:57:02.494Z,7.10
2023-01-20T08:59:30.064Z,7.06
2023-01-20T09:01:57.617Z,6.89
2023-01-20T09:04:25.143Z,6.75
2023-01-20T09:06:53.108Z,6.71
2023-01-20T09:09:22.388Z,6.69
2023-01-20T09:11:53.113Z,6.53
2023-01-20T09:14:22.695Z,6.52
2023-01-20T09:16:50.614Z,6.42
2023-01-20T09:19:18.307Z,6.16
2023-01-20T09:21:45.797Z,6.18
2023-01-20T09:24:13.463Z,6.14
2023-01-20T09:26:40.952Z,6.10
2023-01-20T09:29:12.408Z,6.08
2023-01-20T09:31:44.804Z,6.00
2023-01-20T09:34:19.828Z,5.89
2023-01-20T09:36:55.549Z,5.79
2023-01-20T09:39:41.842Z,5.72
2023-01-20T09:42:55.668Z,5.84
2023-01-20T09:45:52.522Z,5.91
2023-01-20T09:49:05.483Z,5.74
2023-01-20T09:52:05.502Z,5.62
2023-01-20T09:54:44.172Z,5.43
2023-01-20T09:57:14.140Z,5.30
2023-01-20T09:59:48.741Z,5.26
2023-01-20T10:02:30.017Z,5.19
2023-01-20T10:05:16.987Z,5.12
2023-01-20T10:08:01.191Z,4.89
2023-01-20T10:10:32.487Z,4.77
2023-01-20T10:13:34.446Z,4.87
2023-01-20T10:16:08.966Z,4.59
2023-01-20T10:18:52.275Z,4.51
2023-01-20T10:21:41.882Z,4.59
2023-01-20T10:24:19.043Z,4.50
2023-01-20T10:26:59.580Z,4.39
2023-01-20T10:29:34.533Z,4.27
2023-01-20T10:32:08.995Z,4.11
2023-01-20T10:34:46.042Z,4.16
2023-01-20T10:37:15.690Z,3.90
2023-01-20T10:39:57.432Z,4.03
2023-01-20T10:42:25.880Z,3.88
2023-01-20T10:44:53.461Z,3.89
2023-01-20T10:47:44.335Z,4.11
2023-01-20T10:50:40.895Z,4.05
2023-01-20T10:53:08.362Z,3.84
2023-01-20T10:55:52.251Z,3.92
2023-01-20T10:58:36.280Z,3.85
2023-01-20T11:01:07.208Z,3.76
2023-01-20T11:03:43.173Z,3.78
2023-01-20T11:06:21.046Z,3.77
2023-01-20T11:08:49.778Z,3.56
2023-01-20T11:11:22.963Z,3.55
2023-01-20T11:13:52.505Z,3.48
2023-01-20T11:16:25.123Z,3.45
2023-01-20T11:18:59.182Z,3.36
2023-01-20T11:21:32.065Z,3.28
2023-01-20T11:24:00.877Z,3.21
2023-01-20T11:26:33.415Z,3.21
2023-01-20T11:29:04.428Z,3.21
2023-01-20T11:31:53.232Z,3.28
2023-01-20T11:34:36.595Z,3.07
2023-01-20T11:37:07.017Z,2.99
2023-01-20T11:39:42.432Z,2.82
2023-01-20T11:42:21.695Z,2.84
2023-01-20T11:45:19.854Z,2.77
2023-01-20T11:48:02.123Z,2.78
2023-01-20T11:50:50.488Z,2.67
2023-01-20T11:53:36.725Z,2.57
2023-01-20T11:56:24.221Z,2.71
2023-01-20T11:58:58.057Z,2.56
2023-01-20T12:01:28.080Z,2.56
2023-01-20T12:04:33.224Z,2.55
2023-01-20T12:07:06.124Z,2.31
2023-01-20T12:09:38.924Z,2.23
2023-01-20T12:12:15.844Z,2.12
2023-01-20T12:15:12.760Z,2.18
2023-01-20T12:17:49.345Z,2.11
2023-01-20T12:20:53.586Z,2.13
2023-01-20T12:23:33.784Z,2.17
2023-01-20T12:26:03.502Z,1.99
2023-01-20T12:28:52.828Z,2.18
2023-01-20T12:31:24.217Z,1.98
2023-01-20T12:34:04.699Z,2.12
2023-01-20T12:36:57.127Z,2.22
2023-01-20T12:39:37.070Z,2.16
2023-01-20T12:42:10.731Z,2.11
2023-01-20T12:44:50.935Z,2.11
2023-01-20T12:47:41.805Z,2.15
2023-01-20T12:50:44.689Z,2.04
2023-01-20T12:53:39.893Z,2.04
2023-01-20T12:56:50.631Z,2.10
2023-01-20T12:59:21.097Z,2.00
2023-01-20T13:02:21.237Z,1.98
2023-01-20T13:05:03.865Z,1.99
2023-01-20T13:08:14.814Z,2.03
2023-01-20T13:11:08.532Z,1.93
2023-01-20T13:13:56.984Z,1.85
2023-01-20T13:16:45.955Z,1.92
2023-01-20T13:19:24.536Z,1.82
2023-01-20T13:22:06.945Z,1.71
2023-01-20T13:24:36.280Z,1.65
2023-01-20T13:27:04.311Z,1.64
2023-01-20T13:29:37.829Z,1.71
2023-01-20T13:32:33.120Z,1.78
2023-01-20T13:35:03.273Z,1.63
2023-01-20T13:37:39.151Z,1.65
2023-01-20T13:40:38.350Z,1.83
2023-01-20T13:43:26.639Z,1.78
2023-01-20T13:46:03.279Z,1.74
2023-01-20T13:48:32.937Z,1.44
2023-01-20T13:51:15.686Z,1.61
2023-01-20T13:53:44.100Z,1.38
2023-01-20T13:56:35.733Z,1.48
2023-01-20T13:59:03.204Z,1.28
2023-01-20T14:01:30.855Z,1.26
2023-01-20T14:04:16.940Z,1.32
2023-01-20T14:06:58.203Z,1.29
2023-01-20T14:09:26.855Z,1.10
2023-01-20T14:11:57.164Z,1.24
2023-01-20T14:14:27.143Z,1.22
2023-01-20T14:16:56.801Z,1.23
2023-01-20T14:19:32.846Z,1.23
2023-01-20T14:22:03.363Z,1.18
2023-01-20T14:24:36.520Z,1.26
2023-01-20T14:27:27.032Z,1.33
2023-01-20T14:29:57.168Z,1.13
2023-01-20T14:32:32.407Z,1.15
2023-01-20T14:35:01.051Z,0.97
2023-01-20T14:37:38.517Z,1.07
2023-01-20T14:40:27.294Z,1.13
2023-01-20T14:43:22.795Z,0.98
2023-01-20T14:45:52.320Z,0.85
2023-01-20T14:48:33.476Z,0.89
2023-01-20T14:51:04.501Z,0.76
2023-01-20T14:53:32.451Z,0.73
2023-01-20T14:56:07.888Z,0.77
2023-01-20T14:58:36.706Z,0.63
2023-01-20T15:01:06.906Z,0.64
2023-01-20T15:03:34.545Z,0.64
2023-01-20T15:06:06.363Z,0.81
2023-01-20T15:08:33.826Z,0.81
2023-01-20T15:11:22.767Z,0.83
2023-01-20T15:13:59.107Z,0.76
2023-01-20T15:16:30.911Z,0.62
2023-01-20T15:19:13.921Z,0.57
2023-01-20T15:22:30.741Z,0.56
2023-01-20T15:25:13.174Z,0.44
2023-01-20T15:27:40.686Z,0.20
2023-01-20T15:30:21.724Z,0.19
2023-01-20T15:32:50.404Z,0.11
2023-01-20T15:35:23.170Z,0.16
2023-01-20T15:37:50.813Z,0.07
2023-01-20T15:40:21.312Z,0.12
2023-01-20T15:42:51.026Z,0.04
2023-01-20T15:45:19.150Z,-0.09
2023-01-20T15:47:47.303Z,-0.11
2023-01-20T15:50:22.120Z,0.06
2023-01-20T15:52:49.951Z,0.04
2023-01-20T15:55:19.594Z,0.14
2023-01-20T15:57:51.573Z,0.11
2023-01-20T16:00:22.226Z,0.03
2023-01-20T16:02:50.466Z,-0.08
2023-01-20T16:05:18.070Z,-0.12
2023-01-20T16:07:47.978Z,-0.17
2023-01-20T16:10:17.615Z,-0.18
2023-01-20T16:12:46.576Z,-0.30
2023-01-20T16:15:16.634Z,-0.54
2023-01-20T16:17:45.793Z,-0.45
2023-01-20T16:20:22.729Z,-0.38
2023-01-20T16:22:50.621Z,-0.53
2023-01-20T16:25:19.037Z,-0.61
2023-01-20T16:27:46.566Z,-0.61
2023-01-20T16:30:22.606Z,-0.54
2023-01-20T16:32:50.676Z,-0.64
2023-01-20T16:35:20.883Z,-0.58
2023-01-20T16:37:48.604Z,-0.56
2023-01-20T16:40:19.053Z,-0.44
2023-01-20T16:42:47.864Z,-0.45
2023-01-20T16:45:21.748Z,-0.40
2023-01-20T16:47:49.483Z,-0.46
2023-01-20T16:50:18.121Z,-0.45
2023-01-20T16:52:46.283Z,-0.55
2023-01-20T16:55:14.404Z,-0.72
2023-01-20T16:57:42.622Z,-0.72
2023-01-20T17:00:13.116Z,-0.67
2023-01-20T17:02:40.764Z,-0.67
2023-01-20T17:05:09.324Z,-0.68
2023-01-20T17:07:36.947Z,-0.76
2023-01-20T17:10:04.793Z,-0.81
2023-01-20T17:12:32.394Z,-0.78
2023-01-20T17:15:00.055Z,-0.72
2023-01-20T17:17:27.587Z,-0.83
2023-01-20T17:19:55.071Z,-0.83
2023-01-20T17:22:22.626Z,-0.72
2023-01-20T17:24:50.478Z,-0.76
2023-01-20T17:27:18.009Z,-0.87
2023-01-20T17:29:48.614Z,-1.06
2023-01-20T17:32:16.570Z,-1.04
2023-01-20T17:34:44.162Z,-1.04
2023-01-20T17:37:11.753Z,-1.14
2023-01-20T17:39:39.317Z,-1.25
2023-01-20T17:42:06.905Z,-1.18
2023-01-20T17:44:35.430Z,-1.27
2023-01-20T17:47:03.327Z,-1.19
2023-01-20T17:49:31.116Z,-1.23
2023-01-20T17:51:58.619Z,-1.12
2023-01-20T17:54:26.174Z,-1.14
2023-01-20T17:56:53.725Z,-1.17
2023-01-20T17:59:21.320Z,-1.11
2023-01-20T18:01:52.639Z,-1.17
2023-01-20T18:04:20.267Z,-1.25
2023-01-20T18:06:47.840Z,-1.14
2023-01-20T18:09:15.800Z,-1.40
2023-01-20T18:11:43.924Z,-1.41
2023-01-20T18:14:11.595Z,-1.35
2023-01-20T18:16:41.852Z,-1.34
2023-01-20T18:19:15.618Z,-1.43
2023-01-20T18:21:44.407Z,-1.38
2023-01-20T18:24:13.022Z,-1.26
2023-01-20T18:26:43.104Z,-1.34
2023-01-20T18:29:15.016Z,-1.35
2023-01-20T18:31:43.829Z,-1.27
2023-01-20T18:34:13.699Z,-1.27
2023-01-20T18:36:45.359Z,-1.15
2023-01-20T18:39:18.698Z,-1.10
2023-01-20T18:41:46.915Z,-1.16
2023-01-20T18:44:14.857Z,-1.09
2023-01-20T18:46:42.740Z,-1.18
2023-01-20T18:49:18.144Z,-1.06
2023-01-20T18:51:45.760Z,-1.16
2023-01-20T18:54:21.481Z,-1.19
2023-01-20T18:56:49.139Z,-1.29
2023-01-20T18:59:17.017Z,-1.28
2023-01-20T19:01:44.825Z,-1.28
2023-01-20T19:04:14.021Z,-1.34
2023-01-20T19:06:43.868Z,-1.27
2023-01-20T19:09:12.154Z,-1.26
2023-01-20T19:11:41.332Z,-1.28
2023-01-20T19:14:12.613Z,-1.31
2023-01-20T19:16:45.583Z,-1.41
2023-01-20T19:19:13.819Z,-1.37
2023-01-20T19:21:41.820Z,-1.42
2023-01-20T19:24:16.484Z,-1.54
2023-01-20T19:26:44.151Z,-1.55
2023-01-20T19:29:16.017Z,-1.49
2023-01-20T19:31:44.073Z,-1.50
2023-01-20T19:34:11.940Z,-1.51
2023-01-20T19:36:39.509Z,-1.43
2023-01-20T19:39:07.235Z,-1.53
2023-01-20T19:41:36.363Z,-1.51
2023-01-20T19:44:06.913Z,-1.53
2023-01-20T19:46:37.252Z,-1.42
2023-01-20T19:49:05.101Z,-1.42
2023-01-20T19:51:32.645Z,-1.52
2023-01-20T19:54:01.715Z,-1.54
2023-01-20T19:56:32.547Z,-1.56
2023-01-20T19:59:01.448Z,-1.68
2023-01-20T20:01:32.050Z,-1.56
2023-01-20T20:04:03.925Z,-1.53
2023-01-20T20:06:33.950Z,-1.61
2023-01-20T20:09:11.447Z,-1.45
2023-01-20T20:11:39.707Z,-1.42
2023-01-20T20:14:09.269Z,-1.38
2023-01-20T20:16:38.190Z,-1.46
2023-01-20T20:19:07.442Z,-1.35
2023-01-20T20:21:35.249Z,-1.37
2023-01-20T20:24:05.656Z,-1.55
2023-01-20T20:26:36.349Z,-1.44
2023-01-20T20:29:06.409Z,-1.48
2023-01-20T20:31:35.887Z,-1.63
2023-01-20T20:34:05.501Z,-1.70
2023-01-20T20:36:33.840Z,-1.85
2023-01-20T20:39:03.373Z,-1.86
2023-01-20T20:41:32.075Z,-1.73
2023-01-20T20:44:01.282Z,-1.66
2023-01-20T20:46:30.052Z,-1.66
2023-01-20T20:48:59.595Z,-1.79
2023-01-20T20:51:34.986Z,-1.71
2023-01-20T20:54:03.543Z,-1.69
2023-01-20T20:56:32.446Z,-1.77
2023-01-20T20:59:03.029Z,-1.79
2023-01-20T21:01:33.877Z,-1.76
2023-01-20T21:04:03.779Z,-1.82
2023-01-20T21:06:32.045Z,-1.76
2023-01-20T21:09:00.084Z,-1.64
2023-01-20T21:11:28.272Z,-1.57
2023-01-20T21:13:56.203Z,-1.52
2023-01-20T21:16:24.652Z,-1.45
2023-01-20T21:18:54.335Z,-1.49
2023-01-20T21:21:22.625Z,-1.60
2023-01-20T21:23:52.496Z,-1.50
2023-01-20T21:26:21.120Z,-1.55
2023-01-20T21:28:51.865Z,-1.39
2023-01-20T21:31:21.776Z,-1.51
2023-01-20T21:33:54.205Z,-1.54
2023-01-20T21:36:22.809Z,-1.52
2023-01-20T21:38:50.616Z,-1.49
2023-01-20T21:41:18.842Z,-1.33
2023-01-20T21:44:06.239Z,-1.32
2023-01-20T21:46:40.120Z,-1.32
2023-01-20T21:49:27.940Z,-1.31
2023-01-20T21:52:14.788Z,-1.32
2023-01-20T21:54:45.508Z,-1.20
2023-01-20T21:57:14.127Z,-1.24
2023-01-20T21:59:42.579Z,-1.36
2023-01-20T22:02:13.481Z,-1.26
2023-01-20T22:04:42.618Z,-1.30
2023-01-20T22:07:10.692Z,-1.30
2023-01-20T22:09:38.809Z,-1.31
2023-01-20T22:12:06.970Z,-1.17
2023-01-20T22:14:34.484Z,-1.17
2023-01-20T22:17:02.567Z,-1.26
2023-01-20T22:19:30.062Z,-1.25
2023-01-20T22:21:58.239Z,-1.36
2023-01-20T22:24:25.784Z,-1.31
2023-01-20T22:26:53.597Z,-1.30
2023-01-20T22:29:22.530Z,-1.19
2023-01-20T22:31:54.393Z,-1.14
2023-01-20T22:34:22.608Z,-1.08
2023-01-20T22:36:50.068Z,-1.06
2023-01-20T22:39:17.800Z,-1.13
2023-01-20T22:41:45.388Z,-1.10
2023-01-20T22:44:13.001Z,-0.98
2023-01-20T22:46:40.715Z,-0.87
2023-01-20T22:49:08.151Z,-0.79
2023-01-20T22:51:35.687Z,-0.85
2023-01-20T22:54:03.572Z,-0.88
2023-01-20T22:56:32.864Z,-0.73
2023-01-20T22:59:01.075Z,-0.89
2023-01-20T23:01:36.080Z,-0.72
2023-01-20T23:04:06.630Z,-0.72
2023-01-20T23:06:36.403Z,-0.78
2023-01-20T23:09:09.667Z,-0.62
2023-01-20T23:11:38.530Z,-0.60
2023-01-20T23:14:06.978Z,-0.69
2023-01-20T23:16:34.610Z,-0.77
2023-01-20T23:19:02.301Z,-0.74
2023-01-20T23:21:30.276Z,-0.72
2023-01-20T23:23:57.915Z,-0.72
2023-01-20T23:26:30.713Z,-0.60
2023-01-20T23:28:58.816Z,-0.46
2023-01-20T23:31:28.749Z,-0.50
2023-01-20T23:33:56.323Z,-0.53
2023-01-20T23:36:26.048Z,-0.44
2023-01-20T23:38:55.345Z,-0.32
2023-01-20T23:41:23.850Z,-0.23
2023-01-20T23:43:51.545Z,-0.25
2023-01-20T23:46:19.129Z,-0.20
2023-01-20T23:48:48.985Z,-0.07
2023-01-20T23:51:16.937Z,-0.02
2023-01-20T23:53:44.906Z,0.05
2023-01-20T23:56:15.874Z,0.12
2023-01-20T23:58:43.917Z,0.14
